createdAt,value
2022-11-10T02:33:15.571Z,126.32
2022-11-10T02:38:54.955Z,108.72
2022-11-10T02:41:41.924Z,103.03
2022-11-10T02:44:19.139Z,111.80
2022-11-10T02:46:58.088Z,115.28
2022-11-10T02:49:47.388Z,99.78
2022-11-10T02:52:17.198Z,105.45
2022-11-10T02:54:47.835Z,112.90
2022-11-10T02:57:22.050Z,105.90
2022-11-10T02:59:58.517Z,124.20
2022-11-10T03:02:35.436Z,113.45
2022-11-10T03:05:09.704Z,111.13
2022-11-10T03:07:41.418Z,106.57
2022-11-10T03:10:15.937Z,113.03
2022-11-10T03:12:46.097Z,112.30
2022-11-10T03:15:19.607Z,115.30
2022-11-10T03:17:49.287Z,119.47
2022-11-10T03:20:21.902Z,118.30
2022-11-10T03:23:02.790Z,116.75
2022-11-10T03:25:32.691Z,108.35
2022-11-10T03:28:11.299Z,110.07
2022-11-10T03:30:49.382Z,114.38
2022-11-10T03:33:25.517Z,114.20
2022-11-10T03:35:56.796Z,106.75
2022-11-10T03:38:25.313Z,99.53
2022-11-10T03:43:47.646Z,100.97
2022-11-10T03:46:16.799Z,100.47
2022-11-10T03:48:48.884Z,93.05
2022-11-10T03:51:23.551Z,112.53
2022-11-10T03:53:52.636Z,97.95
2022-11-10T03:56:21.271Z,94.72
2022-11-10T03:58:54.958Z,110.28
2022-11-10T04:01:26.378Z,113.70
2022-11-10T04:03:56.704Z,104.88
2022-11-10T04:06:28.372Z,118.00
2022-11-10T04:08:56.487Z,106.33
2022-11-10T04:11:24.786Z,96.35
2022-11-10T04:13:53.940Z,100.47
2022-11-10T04:16:22.238Z,117.15
2022-11-10T04:18:53.184Z,107.22
2022-11-10T04:21:21.473Z,112.05
2022-11-10T04:23:59.469Z,108.45
2022-11-10T04:26:33.331Z,123.88
2022-11-10T04:29:09.553Z,136.85
2022-11-10T04:31:42.416Z,117.15
2022-11-10T04:34:17.491Z,122.50
2022-11-10T04:36:48.567Z,111.30
2022-11-10T04:39:39.700Z,109.05
2022-11-10T04:42:56.551Z,121.78
2022-11-10T04:45:47.787Z,128.57
2022-11-10T04:48:34.469Z,108.32
2022-11-10T04:51:10.334Z,128.20
2022-11-10T04:53:45.012Z,117.32
2022-11-10T04:56:27.409Z,125.00
2022-11-10T04:59:09.415Z,131.48
2022-11-10T05:01:46.841Z,123.50
2022-11-10T05:04:27.150Z,120.30
2022-11-10T05:07:15.235Z,130.27
2022-11-10T05:09:54.589Z,120.03
2022-11-10T05:15:52.848Z,123.22
2022-11-10T05:18:59.675Z,135.10
2022-11-10T05:25:12.169Z,148.93
2022-11-10T05:28:24.128Z,136.15
2022-11-10T05:31:27.334Z,153.32
2022-11-10T05:34:13.934Z,141.77
2022-11-10T05:37:11.065Z,139.30
2022-11-10T05:44:28.327Z,151.55
2022-11-10T05:48:02.932Z,160.20
2022-11-10T05:51:21.252Z,159.68
2022-11-10T05:55:07.211Z,144.00
2022-11-10T07:16:05.739Z,34.50
2022-11-10T14:29:44.051Z,39.37
2022-11-10T14:32:18.939Z,39.97
2022-11-10T14:34:49.078Z,43.30
2022-11-10T14:37:22.929Z,41.05
2022-11-10T14:39:54.869Z,42.38
2022-11-10T14:42:24.555Z,48.05
2022-11-10T14:45:08.922Z,46.30
2022-11-10T14:47:36.660Z,50.47
2022-11-10T14:50:06.760Z,48.88
2022-11-10T14:52:39.638Z,49.28
2022-11-10T14:55:10.032Z,49.13
2022-11-10T15:00:15.213Z,52.50
2022-11-10T15:02:45.036Z,50.72
2022-11-10T15:05:14.791Z,52.80
2022-11-10T15:07:45.141Z,51.83
2022-11-10T15:10:18.962Z,46.47
2022-11-10T15:13:03.182Z,44.40
2022-11-10T15:15:32.603Z,46.15
2022-11-10T15:18:00.367Z,54.35
2022-11-10T15:20:35.282Z,48.15
2022-11-10T15:23:06.524Z,45.10
2022-11-10T15:25:37.158Z,54.50
2022-11-10T15:28:16.692Z,55.75
2022-11-10T15:30:57.573Z,48.95
2022-11-10T15:33:28.272Z,53.90
2022-11-10T15:35:56.704Z,53.58
2022-11-10T15:38:30.830Z,62.65
2022-11-10T15:41:11.167Z,64.43
2022-11-10T15:43:39.557Z,84.32
2022-11-10T15:46:18.028Z,94.63
2022-11-10T15:48:48.798Z,71.13
2022-11-10T15:51:23.001Z,67.65
2022-11-10T15:53:54.617Z,71.35
2022-11-10T15:56:24.331Z,64.70
2022-11-10T15:58:54.648Z,65.90
2022-11-10T16:01:27.570Z,63.53
2022-11-10T16:03:55.335Z,70.20
2022-11-10T16:06:22.989Z,73.22
2022-11-10T16:08:52.387Z,67.95
2022-11-10T16:11:22.605Z,67.22
2022-11-10T16:13:52.102Z,66.93
2022-11-10T16:16:21.569Z,67.72
2022-11-10T16:18:51.402Z,64.90
2022-11-10T16:21:21.519Z,69.50
2022-11-10T16:23:49.518Z,66.75
2022-11-10T16:26:20.651Z,57.20
2022-11-10T16:28:48.744Z,61.30
2022-11-10T16:31:17.549Z,75.88
2022-11-10T16:33:48.134Z,72.38
2022-11-10T16:36:24.340Z,82.28
2022-11-10T16:38:53.745Z,75.13
2022-11-10T16:41:21.851Z,81.93
2022-11-10T16:43:50.380Z,86.13
2022-11-10T16:46:22.672Z,83.25
2022-11-10T16:48:53.861Z,71.20
2022-11-10T16:51:29.085Z,71.32
2022-11-10T16:53:56.874Z,72.85
2022-11-10T16:56:24.595Z,90.53
2022-11-10T16:58:52.312Z,96.15
2022-11-10T17:01:23.201Z,131.07
2022-11-10T17:03:54.110Z,126.63
2022-11-10T17:06:24.958Z,137.95
2022-11-10T17:09:00.215Z,143.82
2022-11-10T17:11:28.151Z,132.32
2022-11-10T17:13:55.836Z,135.73
2022-11-10T17:16:28.653Z,277.58
2022-11-10T17:19:00.971Z,205.30
2022-11-10T17:21:33.085Z,249.02
2022-11-10T17:24:03.519Z,396.63
2022-11-10T17:26:33.991Z,473.80
2022-11-10T17:29:02.622Z,447.52
2022-11-10T17:31:30.396Z,436.85
2022-11-10T17:33:58.669Z,402.92
2022-11-10T17:36:26.548Z,352.48
2022-11-10T17:38:54.563Z,372.58
2022-11-10T17:41:23.836Z,346.00
2022-11-10T17:43:51.387Z,332.10
2022-11-10T17:46:18.981Z,302.98
2022-11-10T17:48:47.552Z,263.27
2022-11-10T17:51:18.584Z,228.80
2022-11-10T17:53:46.555Z,225.90
2022-11-10T17:56:14.496Z,153.25
2022-11-10T17:58:43.551Z,122.70
2022-11-10T18:01:16.445Z,136.55
2022-11-10T18:03:45.220Z,148.25
2022-11-10T18:06:14.422Z,149.05
2022-11-10T18:08:47.189Z,153.32
2022-11-10T18:11:16.483Z,156.77
2022-11-10T18:13:45.863Z,192.57
2022-11-10T18:16:15.136Z,161.38
2022-11-10T18:18:43.110Z,184.52
2022-11-10T18:21:10.859Z,239.02
2022-11-10T18:23:38.804Z,218.00
2022-11-10T18:26:08.268Z,264.38
2022-11-10T18:28:36.005Z,297.63
2022-11-10T18:31:09.319Z,382.77
2022-11-10T18:33:37.623Z,189.18
2022-11-10T18:36:06.195Z,151.32
2022-11-10T18:38:34.338Z,125.28
2022-11-10T18:41:02.714Z,113.90
2022-11-10T18:43:30.464Z,96.72
2022-11-10T18:45:58.311Z,90.65
2022-11-10T18:48:30.220Z,94.30
2022-11-10T18:51:05.376Z,94.60
2022-11-10T18:53:37.112Z,112.50
2022-11-10T18:56:06.758Z,110.63
2022-11-10T18:58:36.102Z,103.55
2022-11-10T19:01:04.601Z,94.32
2022-11-10T19:03:36.914Z,110.87
2022-11-10T19:06:05.281Z,110.03
2022-11-10T19:08:33.788Z,143.13
2022-11-10T19:11:06.024Z,133.07
2022-11-10T19:13:34.303Z,164.65
2022-11-10T19:16:04.864Z,143.77
2022-11-10T19:18:35.662Z,181.30
2022-11-10T19:21:06.921Z,170.18
2022-11-10T19:23:35.568Z,164.45
2022-11-10T19:26:08.937Z,167.95
2022-11-10T19:28:37.596Z,209.32
2022-11-10T19:31:07.449Z,294.27
2022-11-10T19:33:38.591Z,284.60
2022-11-10T19:36:10.201Z,270.88
2022-11-10T19:38:38.279Z,243.23
2022-11-10T19:41:08.379Z,241.90
2022-11-10T19:43:36.482Z,197.75
2022-11-10T19:46:05.327Z,188.55
2022-11-10T19:48:33.842Z,207.10
2022-11-10T19:51:04.405Z,203.98
2022-11-10T19:53:32.420Z,188.07
2022-11-10T19:56:01.769Z,221.48
2022-11-10T19:58:29.762Z,235.00
2022-11-10T20:00:58.819Z,215.75
2022-11-10T20:03:28.772Z,214.20
2022-11-10T20:06:00.716Z,225.55
2022-11-10T20:08:29.807Z,269.70
2022-11-10T20:11:00.460Z,237.23
2022-11-10T20:13:29.507Z,189.57
2022-11-10T20:15:57.330Z,130.23
2022-11-10T20:18:25.138Z,124.13
2022-11-10T20:20:53.050Z,157.90
2022-11-10T20:23:20.970Z,227.50
2022-11-10T20:26:01.946Z,249.52
2022-11-10T20:28:29.970Z,258.52
2022-11-10T20:30:59.627Z,283.88
2022-11-10T20:33:28.046Z,233.23
2022-11-10T20:35:55.684Z,220.20
2022-11-10T20:38:23.582Z,246.68
2022-11-10T20:41:01.966Z,196.18
2022-11-10T20:43:29.797Z,219.35
2022-11-10T20:45:57.454Z,305.65
2022-11-10T20:48:25.343Z,366.05
2022-11-10T20:50:52.903Z,421.98
2022-11-10T20:53:21.026Z,425.13
2022-11-10T20:55:53.737Z,287.77
2022-11-10T20:58:23.272Z,193.60
2022-11-10T21:00:51.224Z,214.60
2022-11-10T21:03:18.924Z,191.80
2022-11-10T21:05:52.991Z,217.07
2022-11-10T21:08:21.343Z,250.07
2022-11-10T21:10:52.991Z,206.15
2022-11-10T21:13:21.902Z,160.38
2022-11-10T21:15:52.968Z,168.70
2022-11-10T21:18:23.030Z,247.18
2022-11-10T21:20:50.785Z,247.90
2022-11-10T21:23:19.308Z,274.08
2022-11-10T21:25:52.982Z,254.95
2022-11-10T21:28:21.174Z,250.48
2022-11-10T21:30:49.209Z,245.00
2022-11-10T21:33:18.652Z,252.32
2022-11-10T21:35:46.344Z,254.43
2022-11-10T21:38:14.764Z,240.48
2022-11-10T21:40:42.303Z,205.18
2022-11-10T21:43:10.519Z,215.85
2022-11-10T21:45:38.042Z,204.88
2022-11-10T21:48:05.857Z,213.45
2022-11-10T21:50:34.956Z,229.77
2022-11-10T21:53:06.325Z,265.77
2022-11-10T21:55:34.167Z,211.75
2022-11-10T21:58:01.994Z,199.88
2022-11-10T22:00:29.868Z,147.57
2022-11-10T22:02:58.317Z,143.75
2022-11-10T22:05:26.174Z,258.92
2022-11-10T22:07:56.207Z,248.60
2022-11-10T22:10:23.746Z,287.55
2022-11-10T22:12:51.936Z,134.88
2022-11-10T22:15:19.868Z,102.25
2022-11-10T22:17:48.472Z,106.68
2022-11-10T22:20:17.083Z,95.07
2022-11-10T22:22:44.631Z,110.55
2022-11-10T22:25:14.925Z,103.68
2022-11-10T22:27:42.616Z,115.57
2022-11-10T22:30:11.330Z,129.75
2022-11-10T22:32:39.802Z,180.00
2022-11-10T22:35:08.387Z,172.75
2022-11-10T22:37:36.766Z,201.27
2022-11-10T22:40:06.131Z,179.00
2022-11-10T22:42:35.350Z,152.98
2022-11-10T22:45:06.203Z,154.70
2022-11-10T22:47:35.089Z,158.55
2022-11-10T22:50:02.789Z,199.48
2022-11-10T22:52:30.840Z,216.35
2022-11-10T22:54:58.949Z,207.88
2022-11-10T22:57:27.167Z,194.63
2022-11-10T22:59:56.159Z,189.80
2022-11-10T23:02:24.548Z,182.00
2022-11-10T23:04:52.156Z,194.13
2022-11-10T23:07:20.696Z,196.05
2022-11-10T23:09:48.435Z,203.55
2022-11-10T23:12:16.633Z,219.18
2022-11-10T23:14:44.464Z,208.45
2022-11-10T23:17:13.638Z,221.50
2022-11-10T23:19:41.869Z,220.85
2022-11-10T23:22:09.474Z,211.70
2022-11-10T23:24:37.215Z,229.20
2022-11-10T23:27:04.897Z,222.50
2022-11-10T23:29:32.434Z,203.38
2022-11-10T23:32:00.635Z,215.07
2022-11-10T23:34:29.606Z,216.52
2022-11-10T23:36:57.797Z,235.13
2022-11-10T23:39:25.727Z,214.25
2022-11-10T23:41:53.996Z,221.00
2022-11-10T23:44:23.350Z,222.15
2022-11-10T23:46:51.231Z,200.23
2022-11-10T23:49:18.777Z,212.73
2022-11-10T23:51:48.073Z,199.00
2022-11-10T23:54:16.237Z,209.25
2022-11-10T23:56:43.845Z,218.57
2022-11-10T23:59:11.452Z,205.70
